sensor_id;sensor_type;location;lat;lon;timestamp;P1;durP1;ratioP1;P2;durP2;ratioP2
29634;SDS011;16557;54.762;56.068;2022-07-23T00:00:44;18.77;;;7.37;;
29634;SDS011;16557;54.762;56.068;2022-07-23T00:03:14;15.43;;;7.62;;
29634;SDS011;16557;54.762;56.068;2022-07-23T00:05:43;17.27;;;7.78;;
29634;SDS011;16557;54.762;56.068;2022-07-23T00:08:13;13.98;;;7.22;;
29634;SDS011;16557;54.762;56.068;2022-07-23T00:10:42;16.10;;;7.60;;
29634;SDS011;16557;54.762;56.068;2022-07-23T00:13:11;22.30;;;8.45;;
29634;SDS011;16557;54.762;56.068;2022-07-23T00:15:40;19.85;;;7.10;;
29634;SDS011;16557;54.762;56.068;2022-07-23T00:18:10;14.38;;;7.58;;
29634;SDS011;16557;54.762;56.068;2022-07-23T00:20:39;18.50;;;7.45;;
29634;SDS011;16557;54.762;56.068;2022-07-23T00:23:08;23.67;;;8.88;;
29634;SDS011;16557;54.762;56.068;2022-07-23T00:25:38;15.60;;;8.38;;
29634;SDS011;16557;54.762;56.068;2022-07-23T00:28:07;15.13;;;7.40;;
29634;SDS011;16557;54.762;56.068;2022-07-23T00:30:36;20.55;;;7.78;;
29634;SDS011;16557;54.762;56.068;2022-07-23T00:33:06;17.67;;;7.75;;
29634;SDS011;16557;54.762;56.068;2022-07-23T00:35:37;18.40;;;7.97;;
29634;SDS011;16557;54.762;56.068;2022-07-23T00:38:09;19.20;;;7.47;;
29634;SDS011;16557;54.762;56.068;2022-07-23T00:40:39;16.97;;;7.83;;
29634;SDS011;16557;54.762;56.068;2022-07-23T00:43:08;21.93;;;8.53;;
29634;SDS011;16557;54.762;56.068;2022-07-23T00:45:37;15.68;;;7.28;;
29634;SDS011;16557;54.762;56.068;2022-07-23T00:48:07;17.07;;;7.20;;
29634;SDS011;16557;54.762;56.068;2022-07-23T00:50:36;17.95;;;7.08;;
29634;SDS011;16557;54.762;56.068;2022-07-23T00:53:05;16.97;;;7.50;;
29634;SDS011;16557;54.762;56.068;2022-07-23T00:55:35;16.42;;;7.25;;
29634;SDS011;16557;54.762;56.068;2022-07-23T00:58:06;22.73;;;7.72;;
29634;SDS011;16557;54.762;56.068;2022-07-23T01:00:35;17.42;;;7.97;;
29634;SDS011;16557;54.762;56.068;2022-07-23T01:03:04;17.77;;;8.30;;
29634;SDS011;16557;54.762;56.068;2022-07-23T01:05:34;20.10;;;7.37;;
29634;SDS011;16557;54.762;56.068;2022-07-23T01:08:04;13.80;;;7.30;;
29634;SDS011;16557;54.762;56.068;2022-07-23T01:10:34;14.28;;;7.42;;
29634;SDS011;16557;54.762;56.068;2022-07-23T01:13:04;17.98;;;7.72;;
29634;SDS011;16557;54.762;56.068;2022-07-23T01:15:35;23.07;;;8.18;;
29634;SDS011;16557;54.762;56.068;2022-07-23T01:18:06;21.60;;;8.25;;
29634;SDS011;16557;54.762;56.068;2022-07-23T01:20:35;22.02;;;8.50;;
29634;SDS011;16557;54.762;56.068;2022-07-23T01:23:05;17.32;;;7.87;;
29634;SDS011;16557;54.762;56.068;2022-07-23T01:25:34;15.63;;;8.68;;
29634;SDS011;16557;54.762;56.068;2022-07-23T01:28:03;17.60;;;7.75;;
29634;SDS011;16557;54.762;56.068;2022-07-23T01:30:32;20.40;;;8.50;;
29634;SDS011;16557;54.762;56.068;2022-07-23T01:33:02;15.30;;;7.83;;
29634;SDS011;16557;54.762;56.068;2022-07-23T01:35:31;13.80;;;7.28;;
29634;SDS011;16557;54.762;56.068;2022-07-23T01:38:00;17.15;;;7.67;;
29634;SDS011;16557;54.762;56.068;2022-07-23T01:40:29;13.85;;;6.92;;
29634;SDS011;16557;54.762;56.068;2022-07-23T01:42:59;13.80;;;7.08;;
29634;SDS011;16557;54.762;56.068;2022-07-23T01:45:28;12.65;;;6.22;;
29634;SDS011;16557;54.762;56.068;2022-07-23T01:47:57;10.28;;;7.08;;
29634;SDS011;16557;54.762;56.068;2022-07-23T01:50:26;12.93;;;7.62;;
29634;SDS011;16557;54.762;56.068;2022-07-23T01:52:56;18.15;;;8.25;;
29634;SDS011;16557;54.762;56.068;2022-07-23T01:55:25;12.33;;;7.03;;
29634;SDS011;16557;54.762;56.068;2022-07-23T01:57:54;22.10;;;7.70;;
29634;SDS011;16557;54.762;56.068;2022-07-23T02:00:24;20.12;;;8.10;;
29634;SDS011;16557;54.762;56.068;2022-07-23T02:02:53;16.05;;;7.08;;
29634;SDS011;16557;54.762;56.068;2022-07-23T02:05:22;18.92;;;8.13;;
29634;SDS011;16557;54.762;56.068;2022-07-23T02:07:51;23.77;;;8.00;;
29634;SDS011;16557;54.762;56.068;2022-07-23T02:10:21;15.03;;;7.85;;
29634;SDS011;16557;54.762;56.068;2022-07-23T02:12:51;13.72;;;6.95;;
29634;SDS011;16557;54.762;56.068;2022-07-23T02:15:21;14.28;;;7.65;;
29634;SDS011;16557;54.762;56.068;2022-07-23T02:17:50;13.90;;;7.12;;
29634;SDS011;16557;54.762;56.068;2022-07-23T02:20:19;14.33;;;7.67;;
29634;SDS011;16557;54.762;56.068;2022-07-23T02:22:49;13.25;;;7.62;;
29634;SDS011;16557;54.762;56.068;2022-07-23T02:25:18;17.37;;;9.10;;
29634;SDS011;16557;54.762;56.068;2022-07-23T02:27:47;17.95;;;7.35;;
29634;SDS011;16557;54.762;56.068;2022-07-23T02:30:16;10.53;;;6.37;;
29634;SDS011;16557;54.762;56.068;2022-07-23T02:32:46;11.10;;;7.42;;
29634;SDS011;16557;54.762;56.068;2022-07-23T02:35:15;17.05;;;7.03;;
29634;SDS011;16557;54.762;56.068;2022-07-23T02:37:44;15.45;;;8.10;;
29634;SDS011;16557;54.762;56.068;2022-07-23T02:40:14;16.93;;;6.97;;
29634;SDS011;16557;54.762;56.068;2022-07-23T02:42:43;12.23;;;6.90;;
29634;SDS011;16557;54.762;56.068;2022-07-23T02:45:13;13.45;;;7.05;;
29634;SDS011;16557;54.762;56.068;2022-07-23T02:47:42;14.85;;;7.08;;
29634;SDS011;16557;54.762;56.068;2022-07-23T02:50:11;15.18;;;7.70;;
29634;SDS011;16557;54.762;56.068;2022-07-23T02:52:41;18.17;;;7.20;;
29634;SDS011;16557;54.762;56.068;2022-07-23T02:55:10;16.37;;;7.33;;
29634;SDS011;16557;54.762;56.068;2022-07-23T02:57:39;18.07;;;7.47;;
29634;SDS011;16557;54.762;56.068;2022-07-23T03:00:09;19.12;;;7.90;;
29634;SDS011;16557;54.762;56.068;2022-07-23T03:02:39;15.58;;;6.87;;
29634;SDS011;16557;54.762;56.068;2022-07-23T03:05:09;16.97;;;7.35;;
29634;SDS011;16557;54.762;56.068;2022-07-23T03:07:38;16.75;;;7.90;;
29634;SDS011;16557;54.762;56.068;2022-07-23T03:10:08;17.95;;;7.87;;
29634;SDS011;16557;54.762;56.068;2022-07-23T03:12:37;13.60;;;7.67;;
29634;SDS011;16557;54.762;56.068;2022-07-23T03:15:07;14.90;;;7.47;;
29634;SDS011;16557;54.762;56.068;2022-07-23T03:17:37;17.70;;;7.25;;
29634;SDS011;16557;54.762;56.068;2022-07-23T03:20:06;13.10;;;7.55;;
29634;SDS011;16557;54.762;56.068;2022-07-23T03:22:36;16.90;;;8.03;;
29634;SDS011;16557;54.762;56.068;2022-07-23T03:25:06;15.40;;;7.70;;
29634;SDS011;16557;54.762;56.068;2022-07-23T03:27:36;16.37;;;8.05;;
29634;SDS011;16557;54.762;56.068;2022-07-23T03:30:06;21.52;;;8.08;;
29634;SDS011;16557;54.762;56.068;2022-07-23T03:32:36;13.83;;;7.53;;
29634;SDS011;16557;54.762;56.068;2022-07-23T03:35:05;20.20;;;7.10;;
29634;SDS011;16557;54.762;56.068;2022-07-23T03:37:35;16.12;;;6.83;;
29634;SDS011;16557;54.762;56.068;2022-07-23T03:40:04;14.95;;;7.12;;
29634;SDS011;16557;54.762;56.068;2022-07-23T03:42:34;18.05;;;7.28;;
29634;SDS011;16557;54.762;56.068;2022-07-23T03:45:04;19.82;;;8.58;;
29634;SDS011;16557;54.762;56.068;2022-07-23T03:47:34;22.17;;;7.87;;
29634;SDS011;16557;54.762;56.068;2022-07-23T03:50:03;22.32;;;7.30;;
29634;SDS011;16557;54.762;56.068;2022-07-23T03:52:33;24.75;;;7.12;;
29634;SDS011;16557;54.762;56.068;2022-07-23T03:55:02;27.17;;;6.90;;
29634;SDS011;16557;54.762;56.068;2022-07-23T03:57:31;17.70;;;7.33;;
29634;SDS011;16557;54.762;56.068;2022-07-23T04:00:01;23.20;;;6.30;;
29634;SDS011;16557;54.762;56.068;2022-07-23T04:02:32;23.85;;;7.08;;
29634;SDS011;16557;54.762;56.068;2022-07-23T04:05:01;14.58;;;6.37;;
29634;SDS011;16557;54.762;56.068;2022-07-23T04:07:31;22.40;;;7.50;;
29634;SDS011;16557;54.762;56.068;2022-07-23T04:10:00;19.40;;;7.60;;
29634;SDS011;16557;54.762;56.068;2022-07-23T04:12:30;21.42;;;6.42;;
29634;SDS011;16557;54.762;56.068;2022-07-23T04:14:59;20.20;;;6.53;;
29634;SDS011;16557;54.762;56.068;2022-07-23T04:17:29;19.32;;;6.22;;
29634;SDS011;16557;54.762;56.068;2022-07-23T04:19:58;17.92;;;7.33;;
29634;SDS011;16557;54.762;56.068;2022-07-23T04:22:29;32.10;;;17.77;;
29634;SDS011;16557;54.762;56.068;2022-07-23T04:24:59;18.20;;;8.48;;
29634;SDS011;16557;54.762;56.068;2022-07-23T04:27:29;16.20;;;8.35;;
29634;SDS011;16557;54.762;56.068;2022-07-23T04:30:00;19.70;;;5.70;;
29634;SDS011;16557;54.762;56.068;2022-07-23T04:32:29;10.90;;;6.15;;
29634;SDS011;16557;54.762;56.068;2022-07-23T04:34:59;12.47;;;5.70;;
29634;SDS011;16557;54.762;56.068;2022-07-23T04:37:28;18.87;;;5.92;;
29634;SDS011;16557;54.762;56.068;2022-07-23T04:39:58;15.58;;;6.75;;
29634;SDS011;16557;54.762;56.068;2022-07-23T04:42:27;16.55;;;5.47;;
29634;SDS011;16557;54.762;56.068;2022-07-23T04:44:56;17.65;;;5.85;;
29634;SDS011;16557;54.762;56.068;2022-07-23T04:47:25;13.00;;;5.30;;
29634;SDS011;16557;54.762;56.068;2022-07-23T04:49:55;13.65;;;5.33;;
29634;SDS011;16557;54.762;56.068;2022-07-23T04:52:24;11.78;;;4.97;;
29634;SDS011;16557;54.762;56.068;2022-07-23T04:54:53;10.60;;;5.17;;
29634;SDS011;16557;54.762;56.068;2022-07-23T04:57:23;12.78;;;5.62;;
29634;SDS011;16557;54.762;56.068;2022-07-23T04:59:52;14.55;;;8.75;;
29634;SDS011;16557;54.762;56.068;2022-07-23T05:02:21;16.25;;;4.95;;
29634;SDS011;16557;54.762;56.068;2022-07-23T05:04:50;16.35;;;5.05;;
29634;SDS011;16557;54.762;56.068;2022-07-23T05:07:19;12.78;;;4.92;;
29634;SDS011;16557;54.762;56.068;2022-07-23T05:09:49;14.10;;;5.20;;
29634;SDS011;16557;54.762;56.068;2022-07-23T05:12:18;11.83;;;3.87;;
29634;SDS011;16557;54.762;56.068;2022-07-23T05:14:48;10.20;;;4.50;;
29634;SDS011;16557;54.762;56.068;2022-07-23T05:17:20;18.23;;;5.87;;
29634;SDS011;16557;54.762;56.068;2022-07-23T05:19:49;17.92;;;5.58;;
29634;SDS011;16557;54.762;56.068;2022-07-23T05:22:18;36.28;;;7.58;;
29634;SDS011;16557;54.762;56.068;2022-07-23T05:24:48;18.65;;;5.83;;
29634;SDS011;16557;54.762;56.068;2022-07-23T05:27:20;16.75;;;6.03;;
29634;SDS011;16557;54.762;56.068;2022-07-23T05:29:49;9.40;;;5.45;;
29634;SDS011;16557;54.762;56.068;2022-07-23T05:32:22;15.00;;;5.70;;
29634;SDS011;16557;54.762;56.068;2022-07-23T05:34:54;11.08;;;5.12;;
29634;SDS011;16557;54.762;56.068;2022-07-23T05:37:24;16.55;;;5.00;;
29634;SDS011;16557;54.762;56.068;2022-07-23T05:39:53;15.18;;;4.60;;
29634;SDS011;16557;54.762;56.068;2022-07-23T05:42:24;16.42;;;5.03;;
29634;SDS011;16557;54.762;56.068;2022-07-23T05:45:00;13.72;;;5.80;;
29634;SDS011;16557;54.762;56.068;2022-07-23T05:47:46;13.43;;;5.10;;
29634;SDS011;16557;54.762;56.068;2022-07-23T05:50:22;11.65;;;5.83;;
29634;SDS011;16557;54.762;56.068;2022-07-23T05:52:49;13.13;;;8.57;;
29634;SDS011;16557;54.762;56.068;2022-07-23T05:55:19;10.88;;;4.33;;
29634;SDS011;16557;54.762;56.068;2022-07-23T05:57:48;9.28;;;4.30;;
29634;SDS011;16557;54.762;56.068;2022-07-23T06:00:18;8.75;;;4.25;;
29634;SDS011;16557;54.762;56.068;2022-07-23T06:02:47;5.47;;;4.28;;
29634;SDS011;16557;54.762;56.068;2022-07-23T06:05:16;7.15;;;4.05;;
29634;SDS011;16557;54.762;56.068;2022-07-23T06:07:46;5.40;;;4.17;;
29634;SDS011;16557;54.762;56.068;2022-07-23T06:10:15;4.53;;;3.42;;
29634;SDS011;16557;54.762;56.068;2022-07-23T06:12:44;6.15;;;3.17;;
29634;SDS011;16557;54.762;56.068;2022-07-23T06:15:14;7.25;;;3.55;;
29634;SDS011;16557;54.762;56.068;2022-07-23T06:17:44;9.35;;;5.60;;
29634;SDS011;16557;54.762;56.068;2022-07-23T06:20:16;8.20;;;3.47;;
29634;SDS011;16557;54.762;56.068;2022-07-23T06:22:45;12.65;;;9.00;;
29634;SDS011;16557;54.762;56.068;2022-07-23T06:25:14;12.43;;;4.53;;
29634;SDS011;16557;54.762;56.068;2022-07-23T06:27:43;12.55;;;5.10;;
29634;SDS011;16557;54.762;56.068;2022-07-23T06:30:13;5.75;;;4.25;;
29634;SDS011;16557;54.762;56.068;2022-07-23T06:32:50;9.88;;;3.30;;
29634;SDS011;16557;54.762;56.068;2022-07-23T06:35:15;11.48;;;3.17;;
29634;SDS011;16557;54.762;56.068;2022-07-23T06:37:45;5.37;;;3.80;;
29634;SDS011;16557;54.762;56.068;2022-07-23T06:40:14;4.87;;;3.42;;
29634;SDS011;16557;54.762;56.068;2022-07-23T06:42:43;8.28;;;4.00;;
29634;SDS011;16557;54.762;56.068;2022-07-23T06:45:13;9.33;;;4.28;;
29634;SDS011;16557;54.762;56.068;2022-07-23T06:47:44;7.95;;;4.33;;
29634;SDS011;16557;54.762;56.068;2022-07-23T06:50:13;7.78;;;4.60;;
29634;SDS011;16557;54.762;56.068;2022-07-23T06:52:42;10.03;;;4.22;;
29634;SDS011;16557;54.762;56.068;2022-07-23T06:55:11;7.20;;;4.80;;
29634;SDS011;16557;54.762;56.068;2022-07-23T06:57:41;5.10;;;3.98;;
29634;SDS011;16557;54.762;56.068;2022-07-23T07:00:10;6.83;;;3.70;;
29634;SDS011;16557;54.762;56.068;2022-07-23T07:02:40;6.42;;;3.67;;
29634;SDS011;16557;54.762;56.068;2022-07-23T07:05:09;6.17;;;4.05;;
29634;SDS011;16557;54.762;56.068;2022-07-23T07:07:38;7.75;;;4.30;;
29634;SDS011;16557;54.762;56.068;2022-07-23T07:10:08;11.68;;;4.55;;
29634;SDS011;16557;54.762;56.068;2022-07-23T07:12:37;8.50;;;4.12;;
29634;SDS011;16557;54.762;56.068;2022-07-23T07:15:08;7.25;;;3.67;;
29634;SDS011;16557;54.762;56.068;2022-07-23T07:17:37;5.67;;;4.00;;
29634;SDS011;16557;54.762;56.068;2022-07-23T07:20:09;8.35;;;3.87;;
29634;SDS011;16557;54.762;56.068;2022-07-23T07:22:39;5.92;;;3.72;;
29634;SDS011;16557;54.762;56.068;2022-07-23T07:25:08;6.65;;;3.80;;
29634;SDS011;16557;54.762;56.068;2022-07-23T07:27:37;5.20;;;4.70;;
29634;SDS011;16557;54.762;56.068;2022-07-23T07:30:07;10.30;;;4.97;;
29634;SDS011;16557;54.762;56.068;2022-07-23T07:32:37;6.47;;;4.12;;
29634;SDS011;16557;54.762;56.068;2022-07-23T07:35:07;6.15;;;4.15;;
29634;SDS011;16557;54.762;56.068;2022-07-23T07:37:37;6.05;;;4.85;;
29634;SDS011;16557;54.762;56.068;2022-07-23T07:40:06;6.45;;;4.20;;
29634;SDS011;16557;54.762;56.068;2022-07-23T07:42:46;4.65;;;3.45;;
29634;SDS011;16557;54.762;56.068;2022-07-23T07:45:14;5.12;;;3.42;;
29634;SDS011;16557;54.762;56.068;2022-07-23T07:47:43;8.15;;;4.05;;
29634;SDS011;16557;54.762;56.068;2022-07-23T07:50:12;8.05;;;3.50;;
29634;SDS011;16557;54.762;56.068;2022-07-23T07:52:42;8.80;;;4.12;;
29634;SDS011;16557;54.762;56.068;2022-07-23T07:55:11;9.30;;;3.80;;
29634;SDS011;16557;54.762;56.068;2022-07-23T07:57:40;6.08;;;3.75;;
29634;SDS011;16557;54.762;56.068;2022-07-23T08:00:10;6.30;;;3.62;;
29634;SDS011;16557;54.762;56.068;2022-07-23T08:02:40;9.28;;;3.98;;
29634;SDS011;16557;54.762;56.068;2022-07-23T08:05:10;5.53;;;3.52;;
29634;SDS011;16557;54.762;56.068;2022-07-23T08:07:40;10.70;;;4.17;;
29634;SDS011;16557;54.762;56.068;2022-07-23T08:10:09;5.15;;;3.92;;
29634;SDS011;16557;54.762;56.068;2022-07-23T08:12:43;7.70;;;5.00;;
29634;SDS011;16557;54.762;56.068;2022-07-23T08:15:14;5.20;;;4.00;;
29634;SDS011;16557;54.762;56.068;2022-07-23T08:17:45;7.47;;;4.15;;
29634;SDS011;16557;54.762;56.068;2022-07-23T08:20:17;6.92;;;4.42;;
29634;SDS011;16557;54.762;56.068;2022-07-23T08:22:55;7.90;;;4.90;;
29634;SDS011;16557;54.762;56.068;2022-07-23T08:25:38;5.15;;;4.08;;
29634;SDS011;16557;54.762;56.068;2022-07-23T08:28:11;4.37;;;3.98;;
29634;SDS011;16557;54.762;56.068;2022-07-23T08:30:50;4.25;;;3.85;;
29634;SDS011;16557;54.762;56.068;2022-07-23T08:33:19;6.17;;;4.92;;
29634;SDS011;16557;54.762;56.068;2022-07-23T08:35:50;6.67;;;4.47;;
29634;SDS011;16557;54.762;56.068;2022-07-23T08:38:20;7.72;;;4.40;;
29634;SDS011;16557;54.762;56.068;2022-07-23T08:40:52;5.25;;;3.98;;
29634;SDS011;16557;54.762;56.068;2022-07-23T08:43:22;6.90;;;4.10;;
29634;SDS011;16557;54.762;56.068;2022-07-23T08:45:53;5.22;;;4.20;;
29634;SDS011;16557;54.762;56.068;2022-07-23T08:48:26;11.35;;;4.50;;
29634;SDS011;16557;54.762;56.068;2022-07-23T08:50:57;11.33;;;4.67;;
29634;SDS011;16557;54.762;56.068;2022-07-23T08:53:27;4.10;;;3.70;;
29634;SDS011;16557;54.762;56.068;2022-07-23T08:55:58;6.25;;;4.10;;
29634;SDS011;16557;54.762;56.068;2022-07-23T08:58:31;4.37;;;3.92;;
29634;SDS011;16557;54.762;56.068;2022-07-23T09:01:01;5.65;;;4.87;;
29634;SDS011;16557;54.762;56.068;2022-07-23T09:03:31;7.28;;;4.00;;
29634;SDS011;16557;54.762;56.068;2022-07-23T09:06:02;10.75;;;5.42;;
29634;SDS011;16557;54.762;56.068;2022-07-23T09:08:38;8.05;;;4.50;;
29634;SDS011;16557;54.762;56.068;2022-07-23T09:11:09;7.25;;;4.28;;
29634;SDS011;16557;54.762;56.068;2022-07-23T09:13:47;7.10;;;4.40;;
29634;SDS011;16557;54.762;56.068;2022-07-23T09:16:18;9.18;;;4.10;;
29634;SDS011;16557;54.762;56.068;2022-07-23T09:18:57;5.17;;;4.47;;
29634;SDS011;16557;54.762;56.068;2022-07-23T09:21:29;8.53;;;4.17;;
29634;SDS011;16557;54.762;56.068;2022-07-23T09:24:12;5.10;;;4.15;;
29634;SDS011;16557;54.762;56.068;2022-07-23T09:26:37;5.53;;;3.77;;
29634;SDS011;16557;54.762;56.068;2022-07-23T09:29:17;8.38;;;4.78;;
29634;SDS011;16557;54.762;56.068;2022-07-23T09:36:58;7.08;;;4.30;;
29634;SDS011;16557;54.762;56.068;2022-07-23T09:39:38;9.45;;;3.75;;
29634;SDS011;16557;54.762;56.068;2022-07-23T09:42:13;9.95;;;4.75;;
29634;SDS011;16557;54.762;56.068;2022-07-23T09:44:47;6.87;;;4.67;;
29634;SDS011;16557;54.762;56.068;2022-07-23T09:47:17;11.10;;;4.70;;
29634;SDS011;16557;54.762;56.068;2022-07-23T09:50:06;8.08;;;3.95;;
29634;SDS011;16557;54.762;56.068;2022-07-23T09:52:52;9.40;;;4.35;;
29634;SDS011;16557;54.762;56.068;2022-07-23T09:55:17;9.55;;;4.33;;
29634;SDS011;16557;54.762;56.068;2022-07-23T09:57:47;6.37;;;4.08;;
29634;SDS011;16557;54.762;56.068;2022-07-23T10:00:20;6.67;;;3.75;;
29634;SDS011;16557;54.762;56.068;2022-07-23T10:02:51;8.40;;;4.50;;
29634;SDS011;16557;54.762;56.068;2022-07-23T10:05:20;8.88;;;4.87;;
29634;SDS011;16557;54.762;56.068;2022-07-23T10:07:51;5.90;;;4.72;;
29634;SDS011;16557;54.762;56.068;2022-07-23T10:10:22;6.90;;;4.53;;
29634;SDS011;16557;54.762;56.068;2022-07-23T10:12:54;7.28;;;4.37;;
29634;SDS011;16557;54.762;56.068;2022-07-23T10:15:41;11.78;;;4.60;;
29634;SDS011;16557;54.762;56.068;2022-07-23T10:18:11;5.70;;;4.30;;
29634;SDS011;16557;54.762;56.068;2022-07-23T10:20:40;9.58;;;4.97;;
29634;SDS011;16557;54.762;56.068;2022-07-23T10:29:01;11.97;;;5.60;;
29634;SDS011;16557;54.762;56.068;2022-07-23T10:34:40;8.28;;;4.65;;
29634;SDS011;16557;54.762;56.068;2022-07-23T10:37:12;5.55;;;3.80;;
29634;SDS011;16557;54.762;56.068;2022-07-23T10:39:45;6.42;;;5.20;;
29634;SDS011;16557;54.762;56.068;2022-07-23T10:42:15;10.60;;;5.35;;
29634;SDS011;16557;54.762;56.068;2022-07-23T10:44:46;7.53;;;4.62;;
29634;SDS011;16557;54.762;56.068;2022-07-23T10:47:28;9.10;;;4.70;;
29634;SDS011;16557;54.762;56.068;2022-07-23T10:50:16;7.15;;;4.08;;
29634;SDS011;16557;54.762;56.068;2022-07-23T10:53:29;7.60;;;5.05;;
29634;SDS011;16557;54.762;56.068;2022-07-23T10:55:48;8.53;;;4.62;;
29634;SDS011;16557;54.762;56.068;2022-07-23T10:58:19;7.58;;;5.10;;
29634;SDS011;16557;54.762;56.068;2022-07-23T11:00:50;5.78;;;4.25;;
29634;SDS011;16557;54.762;56.068;2022-07-23T11:03:29;6.70;;;4.58;;
29634;SDS011;16557;54.762;56.068;2022-07-23T11:06:06;8.93;;;4.65;;
29634;SDS011;16557;54.762;56.068;2022-07-23T11:08:35;9.80;;;6.72;;
29634;SDS011;16557;54.762;56.068;2022-07-23T11:16:12;4.95;;;4.35;;
29634;SDS011;16557;54.762;56.068;2022-07-23T11:34:54;6.33;;;4.45;;
29634;SDS011;16557;54.762;56.068;2022-07-23T11:37:27;5.87;;;5.22;;
29634;SDS011;16557;54.762;56.068;2022-07-23T11:40:13;10.63;;;4.90;;
29634;SDS011;16557;54.762;56.068;2022-07-23T11:42:40;6.75;;;5.12;;
29634;SDS011;16557;54.762;56.068;2022-07-23T11:45:24;7.72;;;5.03;;
29634;SDS011;16557;54.762;56.068;2022-07-23T11:47:55;5.33;;;4.70;;
29634;SDS011;16557;54.762;56.068;2022-07-23T11:50:24;7.80;;;5.53;;
29634;SDS011;16557;54.762;56.068;2022-07-23T11:52:54;7.35;;;5.40;;
29634;SDS011;16557;54.762;56.068;2022-07-23T11:55:24;5.67;;;4.83;;
29634;SDS011;16557;54.762;56.068;2022-07-23T11:57:53;5.92;;;4.28;;
29634;SDS011;16557;54.762;56.068;2022-07-23T12:00:24;9.45;;;4.37;;
29634;SDS011;16557;54.762;56.068;2022-07-23T12:02:58;12.82;;;5.10;;
29634;SDS011;16557;54.762;56.068;2022-07-23T12:05:29;9.75;;;4.55;;
29634;SDS011;16557;54.762;56.068;2022-07-23T12:08:00;6.90;;;5.10;;
29634;SDS011;16557;54.762;56.068;2022-07-23T12:10:35;6.90;;;4.47;;
29634;SDS011;16557;54.762;56.068;2022-07-23T12:13:12;10.20;;;4.03;;
29634;SDS011;16557;54.762;56.068;2022-07-23T12:15:45;10.23;;;5.62;;
29634;SDS011;16557;54.762;56.068;2022-07-23T12:18:18;6.00;;;4.72;;
29634;SDS011;16557;54.762;56.068;2022-07-23T12:20:49;7.37;;;4.75;;
29634;SDS011;16557;54.762;56.068;2022-07-23T12:23:21;5.67;;;5.00;;
29634;SDS011;16557;54.762;56.068;2022-07-23T12:25:51;12.35;;;4.78;;
29634;SDS011;16557;54.762;56.068;2022-07-23T12:28:27;7.83;;;5.20;;
29634;SDS011;16557;54.762;56.068;2022-07-23T12:30:58;13.00;;;10.72;;
29634;SDS011;16557;54.762;56.068;2022-07-23T12:33:32;10.63;;;6.75;;
29634;SDS011;16557;54.762;56.068;2022-07-23T12:36:09;8.05;;;5.35;;
29634;SDS011;16557;54.762;56.068;2022-07-23T12:38:41;11.55;;;5.72;;
29634;SDS011;16557;54.762;56.068;2022-07-23T12:41:17;10.45;;;5.87;;
29634;SDS011;16557;54.762;56.068;2022-07-23T12:43:46;20.85;;;8.33;;
29634;SDS011;16557;54.762;56.068;2022-07-23T12:46:16;9.10;;;6.60;;
29634;SDS011;16557;54.762;56.068;2022-07-23T12:51:21;13.20;;;9.78;;
29634;SDS011;16557;54.762;56.068;2022-07-23T12:53:58;11.63;;;6.33;;
29634;SDS011;16557;54.762;56.068;2022-07-23T12:56:30;7.25;;;6.30;;
29634;SDS011;16557;54.762;56.068;2022-07-23T12:59:08;8.25;;;6.00;;
29634;SDS011;16557;54.762;56.068;2022-07-23T13:01:39;8.63;;;6.87;;
29634;SDS011;16557;54.762;56.068;2022-07-23T13:06:45;9.38;;;6.37;;
29634;SDS011;16557;54.762;56.068;2022-07-23T13:09:19;9.00;;;7.53;;
29634;SDS011;16557;54.762;56.068;2022-07-23T13:11:52;13.58;;;7.33;;
29634;SDS011;16557;54.762;56.068;2022-07-23T13:14:23;10.28;;;7.10;;
29634;SDS011;16557;54.762;56.068;2022-07-23T13:16:53;7.60;;;6.10;;
29634;SDS011;16557;54.762;56.068;2022-07-23T13:19:23;11.65;;;6.83;;
29634;SDS011;16557;54.762;56.068;2022-07-23T13:21:53;13.43;;;6.45;;
29634;SDS011;16557;54.762;56.068;2022-07-23T13:24:23;12.07;;;6.15;;
29634;SDS011;16557;54.762;56.068;2022-07-23T13:26:52;7.22;;;6.10;;
29634;SDS011;16557;54.762;56.068;2022-07-23T13:29:24;10.90;;;6.53;;
29634;SDS011;16557;54.762;56.068;2022-07-23T13:31:53;14.93;;;9.13;;
29634;SDS011;16557;54.762;56.068;2022-07-23T13:34:22;9.78;;;5.50;;
29634;SDS011;16557;54.762;56.068;2022-07-23T13:36:51;11.38;;;6.33;;
29634;SDS011;16557;54.762;56.068;2022-07-23T13:39:20;10.55;;;6.55;;
29634;SDS011;16557;54.762;56.068;2022-07-23T13:41:50;8.00;;;6.40;;
29634;SDS011;16557;54.762;56.068;2022-07-23T13:44:19;10.40;;;6.20;;
29634;SDS011;16557;54.762;56.068;2022-07-23T13:46:49;6.25;;;5.25;;
29634;SDS011;16557;54.762;56.068;2022-07-23T13:49:18;6.50;;;5.37;;
29634;SDS011;16557;54.762;56.068;2022-07-23T13:51:48;8.28;;;5.40;;
29634;SDS011;16557;54.762;56.068;2022-07-23T13:54:17;8.53;;;5.12;;
29634;SDS011;16557;54.762;56.068;2022-07-23T13:56:46;7.17;;;5.53;;
29634;SDS011;16557;54.762;56.068;2022-07-23T13:59:16;7.00;;;5.90;;
29634;SDS011;16557;54.762;56.068;2022-07-23T14:01:46;5.67;;;5.08;;
29634;SDS011;16557;54.762;56.068;2022-07-23T14:04:16;8.60;;;5.92;;
29634;SDS011;16557;54.762;56.068;2022-07-23T14:06:46;8.00;;;7.20;;
29634;SDS011;16557;54.762;56.068;2022-07-23T14:09:15;9.03;;;6.37;;
29634;SDS011;16557;54.762;56.068;2022-07-23T14:11:44;8.93;;;5.55;;
29634;SDS011;16557;54.762;56.068;2022-07-23T14:14:14;13.90;;;9.30;;
29634;SDS011;16557;54.762;56.068;2022-07-23T14:16:43;12.07;;;10.08;;
29634;SDS011;16557;54.762;56.068;2022-07-23T14:19:12;9.95;;;7.30;;
29634;SDS011;16557;54.762;56.068;2022-07-23T14:21:42;12.70;;;7.55;;
29634;SDS011;16557;54.762;56.068;2022-07-23T14:26:43;13.72;;;6.40;;
29634;SDS011;16557;54.762;56.068;2022-07-23T14:29:13;13.38;;;7.72;;
29634;SDS011;16557;54.762;56.068;2022-07-23T14:31:42;9.28;;;7.47;;
29634;SDS011;16557;54.762;56.068;2022-07-23T14:34:12;10.72;;;7.53;;
29634;SDS011;16557;54.762;56.068;2022-07-23T14:36:41;10.75;;;7.60;;
29634;SDS011;16557;54.762;56.068;2022-07-23T14:39:10;10.88;;;8.30;;
29634;SDS011;16557;54.762;56.068;2022-07-23T14:41:39;11.95;;;8.98;;
29634;SDS011;16557;54.762;56.068;2022-07-23T14:44:08;16.20;;;9.78;;
29634;SDS011;16557;54.762;56.068;2022-07-23T14:46:38;22.60;;;15.60;;
29634;SDS011;16557;54.762;56.068;2022-07-23T14:49:07;17.17;;;13.03;;
29634;SDS011;16557;54.762;56.068;2022-07-23T14:51:36;13.98;;;10.15;;
29634;SDS011;16557;54.762;56.068;2022-07-23T14:54:05;16.62;;;9.85;;
29634;SDS011;16557;54.762;56.068;2022-07-23T14:56:35;17.92;;;9.95;;
29634;SDS011;16557;54.762;56.068;2022-07-23T14:59:04;13.48;;;9.38;;
29634;SDS011;16557;54.762;56.068;2022-07-23T15:01:33;14.35;;;10.28;;
29634;SDS011;16557;54.762;56.068;2022-07-23T15:04:04;13.45;;;9.85;;
29634;SDS011;16557;54.762;56.068;2022-07-23T15:06:34;13.40;;;9.90;;
29634;SDS011;16557;54.762;56.068;2022-07-23T15:09:03;12.25;;;9.13;;
29634;SDS011;16557;54.762;56.068;2022-07-23T15:11:34;18.10;;;14.60;;
29634;SDS011;16557;54.762;56.068;2022-07-23T15:14:04;14.77;;;11.03;;
29634;SDS011;16557;54.762;56.068;2022-07-23T15:16:35;15.28;;;12.98;;
29634;SDS011;16557;54.762;56.068;2022-07-23T15:19:04;18.75;;;13.35;;
29634;SDS011;16557;54.762;56.068;2022-07-23T15:21:33;15.45;;;12.58;;
29634;SDS011;16557;54.762;56.068;2022-07-23T15:24:03;19.35;;;11.08;;
29634;SDS011;16557;54.762;56.068;2022-07-23T15:26:32;12.10;;;10.03;;
29634;SDS011;16557;54.762;56.068;2022-07-23T15:29:01;18.20;;;9.75;;